sensor_id;sensor_type;location;lat;lon;timestamp;pressure;altitude;pressure_sealevel;temperature;humidity
8894;BME280;4483;48.622;9.230;2023-02-15T00:01:55;99217.13;;;0.73;86.38
8894;BME280;4483;48.622;9.230;2023-02-15T00:04:24;99217.94;;;0.69;87.06
8894;BME280;4483;48.622;9.230;2023-02-15T00:07:13;99222.09;;;0.67;86.47
8894;BME280;4483;48.622;9.230;2023-02-15T00:09:40;99208.44;;;0.61;87.33
8894;BME280;4483;48.622;9.230;2023-02-15T00:12:06;99211.13;;;0.68;86.88
8894;BME280;4483;48.622;9.230;2023-02-15T00:14:33;99215.38;;;0.69;87.64
8894;BME280;4483;48.622;9.230;2023-02-15T00:17:00;99213.66;;;0.68;87.05
8894;BME280;4483;48.622;9.230;2023-02-15T00:19:26;99212.78;;;0.66;87.38
8894;BME280;4483;48.622;9.230;2023-02-15T00:21:53;99212.78;;;0.66;86.62
8894;BME280;4483;48.622;9.230;2023-02-15T00:24:21;99206.81;;;0.64;86.95
8894;BME280;4483;48.622;9.230;2023-02-15T00:26:48;99206.81;;;0.64;87.53
8894;BME280;4483;48.622;9.230;2023-02-15T00:29:16;99195.78;;;0.62;86.86
8894;BME280;4483;48.622;9.230;2023-02-15T00:31:43;99198.22;;;0.58;86.51
8894;BME280;4483;48.622;9.230;2023-02-15T00:34:12;99202.38;;;0.54;86.00
8894;BME280;4483;48.622;9.230;2023-02-15T00:36:39;99198.84;;;0.48;86.76
8894;BME280;4483;48.622;9.230;2023-02-15T00:39:06;99200.53;;;0.46;86.59
8894;BME280;4483;48.622;9.230;2023-02-15T00:41:35;99189.34;;;0.36;86.04
8894;BME280;4483;48.622;9.230;2023-02-15T00:44:02;99194.41;;;0.36;86.86
8894;BME280;4483;48.622;9.230;2023-02-15T00:46:29;99185.03;;;0.32;87.47
8894;BME280;4483;48.622;9.230;2023-02-15T00:48:56;99183.38;;;0.34;87.35
8894;BME280;4483;48.622;9.230;2023-02-15T00:51:22;99187.56;;;0.32;86.76
8894;BME280;4483;48.622;9.230;2023-02-15T00:53:49;99190.06;;;0.31;86.89
8894;BME280;4483;48.622;9.230;2023-02-15T00:56:16;99189.19;;;0.30;87.26
8894;BME280;4483;48.622;9.230;2023-02-15T00:58:44;99185.78;;;0.28;86.83
8894;BME280;4483;48.622;9.230;2023-02-15T01:01:13;99187.44;;;0.28;86.97
8894;BME280;4483;48.622;9.230;2023-02-15T01:03:40;99188.22;;;0.24;87.51
8894;BME280;4483;48.622;9.230;2023-02-15T01:06:07;99186.53;;;0.24;87.10
8894;BME280;4483;48.622;9.230;2023-02-15T01:08:34;99197.50;;;0.23;86.92
8894;BME280;4483;48.622;9.230;2023-02-15T01:11:03;99190.69;;;0.21;86.83
8894;BME280;4483;48.622;9.230;2023-02-15T01:13:30;99189.84;;;0.20;86.87
8894;BME280;4483;48.622;9.230;2023-02-15T01:15:58;99192.28;;;0.17;87.47
8894;BME280;4483;48.622;9.230;2023-02-15T01:18:25;99191.34;;;0.12;87.20
8894;BME280;4483;48.622;9.230;2023-02-15T01:20:52;99186.25;;;0.11;87.41
8894;BME280;4483;48.622;9.230;2023-02-15T01:23:19;99182.72;;;0.04;87.45
8894;BME280;4483;48.622;9.230;2023-02-15T01:25:46;99172.38;;;-0.05;87.21
8894;BME280;4483;48.622;9.230;2023-02-15T01:28:12;99193.63;;;0.00;87.55
8894;BME280;4483;48.622;9.230;2023-02-15T01:30:39;99187.66;;;-0.02;87.47
8894;BME280;4483;48.622;9.230;2023-02-15T01:33:07;99193.50;;;-0.05;87.47
8894;BME280;4483;48.622;9.230;2023-02-15T01:35:43;99194.22;;;-0.10;86.98
8894;BME280;4483;48.622;9.230;2023-02-15T01:38:09;99188.28;;;-0.11;86.98
8894;BME280;4483;48.622;9.230;2023-02-15T01:40:36;99191.66;;;-0.12;87.63
8894;BME280;4483;48.622;9.230;2023-02-15T01:43:09;99190.75;;;-0.15;87.30
8894;BME280;4483;48.622;9.230;2023-02-15T01:45:36;99180.50;;;-0.18;87.63
8894;BME280;4483;48.622;9.230;2023-02-15T01:48:04;99189.84;;;-0.17;87.13
8894;BME280;4483;48.622;9.230;2023-02-15T01:50:34;99191.53;;;-0.16;87.55
8894;BME280;4483;48.622;9.230;2023-02-15T01:53:06;99188.94;;;-0.19;87.80
8894;BME280;4483;48.622;9.230;2023-02-15T01:55:39;99183.88;;;-0.19;87.47
8894;BME280;4483;48.622;9.230;2023-02-15T01:58:07;99174.53;;;-0.22;87.67
8894;BME280;4483;48.622;9.230;2023-02-15T02:00:34;99175.28;;;-0.26;87.30
8894;BME280;4483;48.622;9.230;2023-02-15T02:03:01;99178.56;;;-0.31;87.49
8894;BME280;4483;48.622;9.230;2023-02-15T02:05:30;99181.00;;;-0.34;87.18
8894;BME280;4483;48.622;9.230;2023-02-15T02:08:00;99173.34;;;-0.37;87.34
8894;BME280;4483;48.622;9.230;2023-02-15T02:10:28;99176.66;;;-0.38;87.59
8894;BME280;4483;48.622;9.230;2023-02-15T02:12:58;99176.66;;;-0.38;88.15
8894;BME280;4483;48.622;9.230;2023-02-15T02:15:32;99171.59;;;-0.38;87.89
8894;BME280;4483;48.622;9.230;2023-02-15T02:18:11;99168.19;;;-0.40;87.86
8894;BME280;4483;48.622;9.230;2023-02-15T02:21:04;99166.47;;;-0.41;87.67
8894;BME280;4483;48.622;9.230;2023-02-15T02:23:49;99169.78;;;-0.44;87.46
8894;BME280;4483;48.622;9.230;2023-02-15T02:26:59;99162.09;;;-0.48;87.63
8894;BME280;4483;48.622;9.230;2023-02-15T02:32:51;99159.47;;;-0.51;87.63
8894;BME280;4483;48.622;9.230;2023-02-15T02:35:22;99151.75;;;-0.57;87.72
8894;BME280;4483;48.622;9.230;2023-02-15T02:38:02;99168.72;;;-0.53;88.23
8894;BME280;4483;48.622;9.230;2023-02-15T02:40:38;99161.00;;;-0.58;87.54
8894;BME280;4483;48.622;9.230;2023-02-15T02:43:12;99161.72;;;-0.63;87.24
8894;BME280;4483;48.622;9.230;2023-02-15T02:45:47;99168.34;;;-0.68;87.64
8894;BME280;4483;48.622;9.230;2023-02-15T02:48:20;99165.72;;;-0.71;87.51
8894;BME280;4483;48.622;9.230;2023-02-15T02:50:48;99157.28;;;-0.73;88.02
8894;BME280;4483;48.622;9.230;2023-02-15T02:53:14;99160.59;;;-0.74;87.96
8894;BME280;4483;48.622;9.230;2023-02-15T02:55:44;99158.03;;;-0.76;87.88
8894;BME280;4483;48.622;9.230;2023-02-15T02:58:15;99156.28;;;-0.78;87.77
8894;BME280;4483;48.622;9.230;2023-02-15T03:00:45;99156.22;;;-0.81;87.89
8894;BME280;4483;48.622;9.230;2023-02-15T03:03:18;99142.63;;;-0.85;87.53
8894;BME280;4483;48.622;9.230;2023-02-15T03:05:50;99148.50;;;-0.86;87.78
8894;BME280;4483;48.622;9.230;2023-02-15T03:08:19;99158.69;;;-0.84;88.13
8894;BME280;4483;48.622;9.230;2023-02-15T03:10:52;99158.59;;;-0.87;87.80
8894;BME280;4483;48.622;9.230;2023-02-15T03:13:20;99154.34;;;-0.88;88.09
8894;BME280;4483;48.622;9.230;2023-02-15T03:15:48;99147.50;;;-0.92;88.47
8894;BME280;4483;48.622;9.230;2023-02-15T03:18:36;99146.59;;;-0.94;87.82
8894;BME280;4483;48.622;9.230;2023-02-15T03:21:05;99147.44;;;-0.95;87.89
8894;BME280;4483;48.622;9.230;2023-02-15T03:23:34;99150.69;;;-0.99;88.20
8894;BME280;4483;48.622;9.230;2023-02-15T03:26:05;99153.13;;;-1.03;87.87
8894;BME280;4483;48.622;9.230;2023-02-15T03:28:36;99155.66;;;-1.03;88.15
8894;BME280;4483;48.622;9.230;2023-02-15T03:31:06;99152.28;;;-1.03;88.16
8894;BME280;4483;48.622;9.230;2023-02-15T03:33:38;99151.50;;;-1.01;88.13
8894;BME280;4483;48.622;9.230;2023-02-15T03:36:11;99147.28;;;-1.02;88.18
8894;BME280;4483;48.622;9.230;2023-02-15T03:38:49;99144.66;;;-1.05;87.77
8894;BME280;4483;48.622;9.230;2023-02-15T03:41:19;99143.78;;;-1.07;87.64
8894;BME280;4483;48.622;9.230;2023-02-15T03:43:51;99146.16;;;-1.11;87.53
8894;BME280;4483;48.622;9.230;2023-02-15T03:46:23;99151.97;;;-1.15;87.35
8894;BME280;4483;48.622;9.230;2023-02-15T03:48:57;99145.88;;;-1.23;87.37
8894;BME280;4483;48.622;9.230;2023-02-15T03:51:28;99153.41;;;-1.25;87.26
8894;BME280;4483;48.622;9.230;2023-02-15T03:53:59;99153.31;;;-1.28;87.82
8894;BME280;4483;48.622;9.230;2023-02-15T03:56:26;99154.09;;;-1.30;88.14
8894;BME280;4483;48.622;9.230;2023-02-15T03:58:53;99159.09;;;-1.32;87.76
8894;BME280;4483;48.622;9.230;2023-02-15T04:01:40;99157.44;;;-1.31;87.92
8894;BME280;4483;48.622;9.230;2023-02-15T04:04:35;99155.72;;;-1.32;87.40
8894;BME280;4483;48.622;9.230;2023-02-15T04:07:05;99150.69;;;-1.32;87.80
8894;BME280;4483;48.622;9.230;2023-02-15T04:09:32;99150.72;;;-1.31;88.15
8894;BME280;4483;48.622;9.230;2023-02-15T04:12:16;99145.66;;;-1.31;87.64
8894;BME280;4483;48.622;9.230;2023-02-15T04:14:43;99141.41;;;-1.32;87.93
8894;BME280;4483;48.622;9.230;2023-02-15T04:17:23;99144.72;;;-1.34;87.69
8894;BME280;4483;48.622;9.230;2023-02-15T04:19:51;99140.44;;;-1.37;87.88
8894;BME280;4483;48.622;9.230;2023-02-15T04:22:35;99139.53;;;-1.39;87.08
8894;BME280;4483;48.622;9.230;2023-02-15T04:25:19;99145.31;;;-1.43;87.64
8894;BME280;4483;48.622;9.230;2023-02-15T04:27:48;99150.28;;;-1.46;87.48
8894;BME280;4483;48.622;9.230;2023-02-15T04:30:16;99150.25;;;-1.47;87.57
8894;BME280;4483;48.622;9.230;2023-02-15T04:32:43;99149.28;;;-1.52;87.61
8894;BME280;4483;48.622;9.230;2023-02-15T04:35:12;99143.16;;;-1.60;87.81
8894;BME280;4483;48.622;9.230;2023-02-15T04:37:39;99149.91;;;-1.59;88.01
8894;BME280;4483;48.622;9.230;2023-02-15T04:40:10;99141.38;;;-1.63;87.38
8894;BME280;4483;48.622;9.230;2023-02-15T04:42:37;99136.25;;;-1.66;87.70
8894;BME280;4483;48.622;9.230;2023-02-15T04:45:04;99142.19;;;-1.65;88.14
8894;BME280;4483;48.622;9.230;2023-02-15T04:47:31;99148.88;;;-1.66;88.25
8894;BME280;4483;48.622;9.230;2023-02-15T04:49:58;99139.63;;;-1.67;88.44
8894;BME280;4483;48.622;9.230;2023-02-15T04:52:26;99138.81;;;-1.64;87.96
8894;BME280;4483;48.622;9.230;2023-02-15T04:54:52;99136.25;;;-1.66;88.41
8894;BME280;4483;48.622;9.230;2023-02-15T04:57:19;99140.56;;;-1.63;87.97
8894;BME280;4483;48.622;9.230;2023-02-15T04:59:45;99130.44;;;-1.63;88.14
8894;BME280;4483;48.622;9.230;2023-02-15T05:02:12;99124.44;;;-1.67;87.73
8894;BME280;4483;48.622;9.230;2023-02-15T05:04:38;99119.41;;;-1.67;88.07
8894;BME280;4483;48.622;9.230;2023-02-15T05:07:05;99116.03;;;-1.66;87.84
8894;BME280;4483;48.622;9.230;2023-02-15T05:09:33;99115.19;;;-1.66;87.82
8894;BME280;4483;48.622;9.230;2023-02-15T05:11:59;99105.00;;;-1.69;87.34
8894;BME280;4483;48.622;9.230;2023-02-15T05:14:26;99111.63;;;-1.73;88.36
8894;BME280;4483;48.622;9.230;2023-02-15T05:16:53;99124.31;;;-1.71;88.15
8894;BME280;4483;48.622;9.230;2023-02-15T05:19:20;99120.91;;;-1.72;88.50
8894;BME280;4483;48.622;9.230;2023-02-15T05:21:48;99132.75;;;-1.71;88.45
8894;BME280;4483;48.622;9.230;2023-02-15T05:24:15;99131.03;;;-1.72;87.92
8894;BME280;4483;48.622;9.230;2023-02-15T05:27:00;99137.69;;;-1.74;87.83
8894;BME280;4483;48.622;9.230;2023-02-15T05:29:44;99136.00;;;-1.75;88.02
8894;BME280;4483;48.622;9.230;2023-02-15T05:32:12;99134.22;;;-1.77;88.75
8894;BME280;4483;48.622;9.230;2023-02-15T05:34:39;99133.41;;;-1.78;88.84
8894;BME280;4483;48.622;9.230;2023-02-15T05:37:06;99136.84;;;-1.76;88.86
8894;BME280;4483;48.622;9.230;2023-02-15T05:39:32;99127.53;;;-1.77;88.36
8894;BME280;4483;48.622;9.230;2023-02-15T05:42:00;99129.06;;;-1.82;88.30
8894;BME280;4483;48.622;9.230;2023-02-15T05:44:27;99131.66;;;-1.79;88.34
8894;BME280;4483;48.622;9.230;2023-02-15T05:46:54;99126.53;;;-1.82;88.58
8894;BME280;4483;48.622;9.230;2023-02-15T05:49:20;99136.66;;;-1.82;88.64
8894;BME280;4483;48.622;9.230;2023-02-15T05:51:47;99123.16;;;-1.82;88.60
8894;BME280;4483;48.622;9.230;2023-02-15T05:54:13;99124.78;;;-1.84;88.64
8894;BME280;4483;48.622;9.230;2023-02-15T05:56:40;99132.31;;;-1.86;88.39
8894;BME280;4483;48.622;9.230;2023-02-15T05:59:08;99132.31;;;-1.86;89.16
8894;BME280;4483;48.622;9.230;2023-02-15T06:01:35;99131.41;;;-1.88;88.37
8894;BME280;4483;48.622;9.230;2023-02-15T06:04:02;99129.75;;;-1.87;89.13
8894;BME280;4483;48.622;9.230;2023-02-15T06:06:28;99128.88;;;-1.88;89.07
8894;BME280;4483;48.622;9.230;2023-02-15T06:08:55;99122.09;;;-1.90;89.09
8894;BME280;4483;48.622;9.230;2023-02-15T06:11:21;99139.00;;;-1.88;89.26
8894;BME280;4483;48.622;9.230;2023-02-15T06:13:48;99133.94;;;-1.88;88.52
8894;BME280;4483;48.622;9.230;2023-02-15T06:16:16;99138.09;;;-1.90;89.11
8894;BME280;4483;48.622;9.230;2023-02-15T06:18:42;99141.44;;;-1.91;88.16
8894;BME280;4483;48.622;9.230;2023-02-15T06:21:09;99145.59;;;-1.93;88.68
8894;BME280;4483;48.622;9.230;2023-02-15T06:23:36;99143.84;;;-1.94;88.74
8894;BME280;4483;48.622;9.230;2023-02-15T06:26:03;99150.44;;;-1.99;88.53
8894;BME280;4483;48.622;9.230;2023-02-15T06:28:29;99159.78;;;-1.96;88.37
8894;BME280;4483;48.622;9.230;2023-02-15T06:30:56;99159.78;;;-1.96;88.68
8894;BME280;4483;48.622;9.230;2023-02-15T06:33:24;99157.31;;;-1.95;88.67
8894;BME280;4483;48.622;9.230;2023-02-15T06:35:50;99154.81;;;-1.93;88.32
8894;BME280;4483;48.622;9.230;2023-02-15T06:38:17;99158.25;;;-1.91;89.05
8894;BME280;4483;48.622;9.230;2023-02-15T06:40:43;99165.88;;;-1.90;89.14
8894;BME280;4483;48.622;9.230;2023-02-15T06:43:10;99151.56;;;-1.89;88.97
8894;BME280;4483;48.622;9.230;2023-02-15T06:45:36;99166.31;;;-1.75;89.17
8894;BME280;4483;48.622;9.230;2023-02-15T06:48:04;99166.13;;;-1.53;88.70
8894;BME280;4483;48.622;9.230;2023-02-15T06:50:33;99163.47;;;-1.26;89.13
8894;BME280;4483;48.622;9.230;2023-02-15T06:53:00;99161.59;;;-1.02;88.56
8894;BME280;4483;48.622;9.230;2023-02-15T06:55:26;99155.53;;;-0.74;88.15
8894;BME280;4483;48.622;9.230;2023-02-15T06:57:53;99159.63;;;-0.45;87.55
8894;BME280;4483;48.622;9.230;2023-02-15T07:00:20;99152.72;;;-0.17;87.23
8894;BME280;4483;48.622;9.230;2023-02-15T07:02:48;99159.13;;;0.07;85.99
8894;BME280;4483;48.622;9.230;2023-02-15T07:05:20;99164.88;;;0.38;85.66
8894;BME280;4483;48.622;9.230;2023-02-15T07:07:48;99167.97;;;0.65;85.05
8894;BME280;4483;48.622;9.230;2023-02-15T07:10:15;99162.69;;;1.01;84.50
8894;BME280;4483;48.622;9.230;2023-02-15T07:12:42;99152.28;;;1.34;84.28
8894;BME280;4483;48.622;9.230;2023-02-15T07:15:08;99153.69;;;1.69;83.13
8894;BME280;4483;48.622;9.230;2023-02-15T07:17:35;99128.53;;;1.87;82.97
8894;BME280;4483;48.622;9.230;2023-02-15T07:20:03;99154.59;;;2.32;81.68
8894;BME280;4483;48.622;9.230;2023-02-15T07:22:29;99153.25;;;2.61;81.19
8894;BME280;4483;48.622;9.230;2023-02-15T07:24:57;99158.66;;;2.91;80.19
8894;BME280;4483;48.622;9.230;2023-02-15T07:27:24;99160.69;;;3.23;79.88
8894;BME280;4483;48.622;9.230;2023-02-15T07:29:51;99155.00;;;3.54;78.90
8894;BME280;4483;48.622;9.230;2023-02-15T07:32:17;99153.56;;;3.86;78.31
8894;BME280;4483;48.622;9.230;2023-02-15T07:34:44;99149.53;;;4.23;77.76
8894;BME280;4483;48.622;9.230;2023-02-15T07:37:10;99150.56;;;4.59;76.71
8894;BME280;4483;48.622;9.230;2023-02-15T07:39:37;99142.13;;;4.89;75.08
8894;BME280;4483;48.622;9.230;2023-02-15T07:42:05;99134.50;;;5.11;74.50
8894;BME280;4483;48.622;9.230;2023-02-15T07:44:31;99132.84;;;5.35;73.22
8894;BME280;4483;48.622;9.230;2023-02-15T07:46:58;99128.59;;;5.55;72.44
8894;BME280;4483;48.622;9.230;2023-02-15T07:49:25;99129.41;;;5.76;71.72
8894;BME280;4483;48.622;9.230;2023-02-15T07:51:51;99127.69;;;5.99;71.16
8894;BME280;4483;48.622;9.230;2023-02-15T07:54:18;99129.34;;;6.23;70.31
8894;BME280;4483;48.622;9.230;2023-02-15T07:56:44;99121.56;;;6.50;68.82
8894;BME280;4483;48.622;9.230;2023-02-15T07:59:13;99113.81;;;6.65;67.47
8894;BME280;4483;48.622;9.230;2023-02-15T08:01:39;99113.78;;;6.73;67.57
8894;BME280;4483;48.622;9.230;2023-02-15T08:04:07;99117.13;;;6.85;67.58
8894;BME280;4483;48.622;9.230;2023-02-15T08:06:36;99105.91;;;7.06;67.06
8894;BME280;4483;48.622;9.230;2023-02-15T08:09:04;99108.25;;;7.35;66.29
8894;BME280;4483;48.622;9.230;2023-02-15T08:11:32;99116.53;;;7.64;65.41
8894;BME280;4483;48.622;9.230;2023-02-15T08:14:03;99116.31;;;7.91;65.04
8894;BME280;4483;48.622;9.230;2023-02-15T08:16:34;99117.75;;;8.13;61.57
8894;BME280;4483;48.622;9.230;2023-02-15T08:19:03;99111.63;;;8.31;62.13
8894;BME280;4483;48.622;9.230;2023-02-15T08:21:31;99115.69;;;8.51;62.12
8894;BME280;4483;48.622;9.230;2023-02-15T08:23:58;99115.44;;;8.69;61.88
8894;BME280;4483;48.622;9.230;2023-02-15T08:26:26;99103.19;;;8.86;61.47
8894;BME280;4483;48.622;9.230;2023-02-15T08:28:53;99112.25;;;9.13;61.01
8894;BME280;4483;48.622;9.230;2023-02-15T08:31:20;99108.44;;;9.38;59.79
8894;BME280;4483;48.622;9.230;2023-02-15T08:33:50;99111.56;;;9.57;59.91
8894;BME280;4483;48.622;9.230;2023-02-15T08:36:19;99110.31;;;9.79;59.37
8894;BME280;4483;48.622;9.230;2023-02-15T08:38:46;99106.53;;;9.99;58.50
8894;BME280;4483;48.622;9.230;2023-02-15T08:41:15;99107.16;;;10.13;57.65
8894;BME280;4483;48.622;9.230;2023-02-15T08:43:44;99099.94;;;10.31;56.34
8894;BME280;4483;48.622;9.230;2023-02-15T08:46:12;99102.19;;;10.47;55.92
8894;BME280;4483;48.622;9.230;2023-02-15T08:48:39;99089.75;;;10.67;56.23
8894;BME280;4483;48.622;9.230;2023-02-15T08:51:10;99089.28;;;10.88;55.75
8894;BME280;4483;48.622;9.230;2023-02-15T08:53:38;99090.63;;;11.04;55.04
8894;BME280;4483;48.622;9.230;2023-02-15T08:56:05;99097.41;;;11.08;54.02
8894;BME280;4483;48.622;9.230;2023-02-15T08:58:32;99097.28;;;11.14;53.82
8894;BME280;4483;48.622;9.230;2023-02-15T09:00:59;99100.66;;;11.17;52.22
8894;BME280;4483;48.622;9.230;2023-02-15T09:03:27;99080.84;;;11.17;52.65
8894;BME280;4483;48.622;9.230;2023-02-15T09:05:57;99087.50;;;11.27;52.07
8894;BME280;4483;48.622;9.230;2023-02-15T09:08:26;99091.59;;;11.37;50.65
8894;BME280;4483;48.622;9.230;2023-02-15T09:10:53;99082.75;;;11.46;51.30
8894;BME280;4483;48.622;9.230;2023-02-15T09:13:20;99085.25;;;11.49;51.76
8894;BME280;4483;48.622;9.230;2023-02-15T09:15:46;99086.81;;;11.56;51.20
8894;BME280;4483;48.622;9.230;2023-02-15T09:18:13;99090.09;;;11.62;50.93
8894;BME280;4483;48.622;9.230;2023-02-15T09:20:43;99083.88;;;11.71;51.05
8894;BME280;4483;48.622;9.230;2023-02-15T09:23:09;99079.09;;;11.89;50.80
8894;BME280;4483;48.622;9.230;2023-02-15T09:25:37;99067.34;;;12.10;50.81
8894;BME280;4483;48.622;9.230;2023-02-15T09:28:04;99073.94;;;12.20;49.00
8894;BME280;4483;48.622;9.230;2023-02-15T09:30:31;99068.50;;;12.29;49.76
8894;BME280;4483;48.622;9.230;2023-02-15T09:32:57;99058.94;;;12.33;49.40
8894;BME280;4483;48.622;9.230;2023-02-15T09:35:24;99064.69;;;12.42;49.82
8894;BME280;4483;48.622;9.230;2023-02-15T09:37:50;99063.47;;;12.55;49.71
8894;BME280;4483;48.622;9.230;2023-02-15T09:40:17;99064.91;;;12.64;49.19
8894;BME280;4483;48.622;9.230;2023-02-15T09:46:06;99057.47;;;12.82;48.59
8894;BME280;4483;48.622;9.230;2023-02-15T09:48:41;99063.09;;;12.96;49.18
8894;BME280;4483;48.622;9.230;2023-02-15T09:51:36;99059.34;;;13.06;48.90
8894;BME280;4483;48.622;9.230;2023-02-15T09:54:19;99051.97;;;13.21;46.98
8894;BME280;4483;48.622;9.230;2023-02-15T09:56:51;99057.88;;;13.24;48.01
8894;BME280;4483;48.622;9.230;2023-02-15T09:59:28;99057.88;;;13.24;47.58
8894;BME280;4483;48.622;9.230;2023-02-15T10:02:08;99052.63;;;13.27;47.83
8894;BME280;4483;48.622;9.230;2023-02-15T10:04:56;99046.13;;;13.42;47.23
8894;BME280;4483;48.622;9.230;2023-02-15T10:07:47;99052.84;;;13.47;47.39
8894;BME280;4483;48.622;9.230;2023-02-15T10:10:24;99054.06;;;13.62;47.18
8894;BME280;4483;48.622;9.230;2023-02-15T10:13:03;99051.22;;;13.69;46.65
8894;BME280;4483;48.622;9.230;2023-02-15T10:15:42;99040.50;;;13.80;46.51
8894;BME280;4483;48.622;9.230;2023-02-15T10:18:32;99046.88;;;13.94;46.33
8894;BME280;4483;48.622;9.230;2023-02-15T10:21:07;99038.91;;;14.00;45.68
8894;BME280;4483;48.622;9.230;2023-02-15T10:23:55;99033.94;;;14.18;46.21
8894;BME280;4483;48.622;9.230;2023-02-15T10:26:29;99027.09;;;14.40;45.81
8894;BME280;4483;48.622;9.230;2023-02-15T10:29:04;99018.97;;;14.49;44.93
8894;BME280;4483;48.622;9.230;2023-02-15T10:31:40;99022.28;;;14.54;45.02
8894;BME280;4483;48.622;9.230;2023-02-15T10:34:15;99023.75;;;14.82;45.17
8894;BME280;4483;48.622;9.230;2023-02-15T10:37:23;99014.69;;;15.14;43.68
8894;BME280;4483;48.622;9.230;2023-02-15T10:39:59;99014.50;;;15.39;44.11
8894;BME280;4483;48.622;9.230;2023-02-15T10:42:33;99002.56;;;15.56;42.44
8894;BME280;4483;48.622;9.230;2023-02-15T10:45:12;99007.44;;;15.84;43.38
8894;BME280;4483;48.622;9.230;2023-02-15T10:48:06;99002.00;;;16.08;42.48
8894;BME280;4483;48.622;9.230;2023-02-15T10:50:56;99000.66;;;16.37;41.85
8894;BME280;4483;48.622;9.230;2023-02-15T10:56:17;98987.69;;;16.56;41.36
8894;BME280;4483;48.622;9.230;2023-02-15T10:59:09;98978.50;;;16.67;41.27
8894;BME280;4483;48.622;9.230;2023-02-15T11:01:41;98977.00;;;16.80;40.94
8894;BME280;4483;48.622;9.230;2023-02-15T11:04:36;98976.47;;;16.91;40.58
8894;BME280;4483;48.622;9.230;2023-02-15T11:07:08;98977.50;;;17.05;40.45
8894;BME280;4483;48.622;9.230;2023-02-15T11:09:43;98965.84;;;17.13;39.87
8894;BME280;4483;48.622;9.230;2023-02-15T11:12:15;98972.44;;;17.20;39.15
8894;BME280;4483;48.622;9.230;2023-02-15T11:14:46;98966.34;;;17.21;39.78
8894;BME280;4483;48.622;9.230;2023-02-15T11:17:19;98943.50;;;17.26;39.36
8894;BME280;4483;48.622;9.230;2023-02-15T11:19:55;98947.94;;;17.41;39.26
8894;BME280;4483;48.622;9.230;2023-02-15T11:22:25;98952.72;;;17.67;39.37
8894;BME280;4483;48.622;9.230;2023-02-15T11:24:53;98940.88;;;17.77;38.89
8894;BME280;4483;48.622;9.230;2023-02-15T11:27:22;98934.19;;;17.88;38.00
8894;BME280;4483;48.622;9.230;2023-02-15T11:29:54;98938.81;;;17.99;37.98
8894;BME280;4483;48.622;9.230;2023-02-15T11:32:26;98946.78;;;17.80;37.13
8894;BME280;4483;48.622;9.230;2023-02-15T11:35:00;98942.56;;;17.78;37.40
8894;BME280;4483;48.622;9.230;2023-02-15T11:37:32;98937.97;;;17.83;37.55
8894;BME280;4483;48.622;9.230;2023-02-15T11:40:02;98939.31;;;17.90;37.72
8894;BME280;4483;48.622;9.230;2023-02-15T11:42:30;98935.47;;;17.97;37.04
8894;BME280;4483;48.622;9.230;2023-02-15T11:45:02;98929.06;;;17.87;37.41
8894;BME280;4483;48.622;9.230;2023-02-15T11:47:32;98921.56;;;17.96;37.37
8894;BME280;4483;48.622;9.230;2023-02-15T11:50:00;98920.13;;;17.91;37.52
8894;BME280;4483;48.622;9.230;2023-02-15T11:52:28;98918.44;;;17.74;37.16
8894;BME280;4483;48.622;9.230;2023-02-15T11:54:54;98912.78;;;17.82;36.92
8894;BME280;4483;48.622;9.230;2023-02-15T11:57:25;98916.53;;;17.93;37.55
8894;BME280;4483;48.622;9.230;2023-02-15T11:59:56;98921.94;;;18.06;36.16
8894;BME280;4483;48.622;9.230;2023-02-15T12:02:24;98924.31;;;18.26;36.38
8894;BME280;4483;48.622;9.230;2023-02-15T12:04:55;98919.44;;;18.36;36.00
8894;BME280;4483;48.622;9.230;2023-02-15T12:07:28;98920.28;;;18.36;35.65
8894;BME280;4483;48.622;9.230;2023-02-15T12:10:02;98918.53;;;18.37;35.68
8894;BME280;4483;48.622;9.230;2023-02-15T12:12:33;98906.19;;;18.39;35.61
8894;BME280;4483;48.622;9.230;2023-02-15T12:15:02;98909.84;;;18.36;35.75
8894;BME280;4483;48.622;9.230;2023-02-15T12:17:31;98908.44;;;18.46;35.49
8894;BME280;4483;48.622;9.230;2023-02-15T12:20:01;98913.06;;;18.57;34.90
8894;BME280;4483;48.622;9.230;2023-02-15T12:22:31;98907.63;;;18.75;35.29
8894;BME280;4483;48.622;9.230;2023-02-15T12:25:00;98906.63;;;18.93;35.18
8894;BME280;4483;48.622;9.230;2023-02-15T12:27:29;98900.09;;;19.00;34.74
8894;BME280;4483;48.622;9.230;2023-02-15T12:29:59;98899.81;;;19.05;34.86
8894;BME280;4483;48.622;9.230;2023-02-15T12:32:30;98901.72;;;19.17;34.37
8894;BME280;4483;48.622;9.230;2023-02-15T12:35:01;98887.47;;;19.23;34.05
8894;BME280;4483;48.622;9.230;2023-02-15T12:37:34;98887.53;;;19.21;34.00
8894;BME280;4483;48.622;9.230;2023-02-15T12:40:17;98887.19;;;19.27;34.45
8894;BME280;4483;48.622;9.230;2023-02-15T12:42:45;98878.19;;;19.47;33.64
8894;BME280;4483;48.622;9.230;2023-02-15T12:45:22;98888.19;;;19.54;33.50
8894;BME280;4483;48.622;9.230;2023-02-15T12:48:09;98888.47;;;19.64;33.57
8894;BME280;4483;48.622;9.230;2023-02-15T12:50:36;98878.94;;;19.77;33.93
8894;BME280;4483;48.622;9.230;2023-02-15T12:53:13;98880.81;;;19.75;33.79
8894;BME280;4483;48.622;9.230;2023-02-15T12:55:49;98871.00;;;19.78;34.21
8894;BME280;4483;48.622;9.230;2023-02-15T12:58:17;98877.28;;;19.76;34.93
8894;BME280;4483;48.622;9.230;2023-02-15T13:00:45;98871.66;;;19.68;35.49
8894;BME280;4483;48.622;9.230;2023-02-15T13:03:17;98869.25;;;19.65;35.88
8894;BME280;4483;48.622;9.230;2023-02-15T13:05:45;98869.81;;;19.70;35.99
8894;BME280;4483;48.622;9.230;2023-02-15T13:08:16;98870.47;;;19.73;36.26
8894;BME280;4483;48.622;9.230;2023-02-15T13:10:53;98854.94;;;19.84;36.47
8894;BME280;4483;48.622;9.230;2023-02-15T13:13:23;98868.38;;;20.07;36.40
8894;BME280;4483;48.622;9.230;2023-02-15T13:15:52;98867.53;;;20.20;35.48
8894;BME280;4483;48.622;9.230;2023-02-15T13:18:29;98853.91;;;20.01;35.90
8894;BME280;4483;48.622;9.230;2023-02-15T13:20:57;98846.72;;;19.76;36.20
8894;BME280;4483;48.622;9.230;2023-02-15T13:23:28;98847.38;;;19.38;36.42
8894;BME280;4483;48.622;9.230;2023-02-15T13:25:57;98841.09;;;19.26;36.65
8894;BME280;4483;48.622;9.230;2023-02-15T13:28:31;98837.63;;;19.12;36.47
8894;BME280;4483;48.622;9.230;2023-02-15T13:30:59;98835.16;;;18.94;36.82
8894;BME280;4483;48.622;9.230;2023-02-15T13:33:30;98832.31;;;18.83;36.83
8894;BME280;4483;48.622;9.230;2023-02-15T13:36:04;98833.50;;;18.93;37.10
8894;BME280;4483;48.622;9.230;2023-02-15T13:38:46;98826.78;;;19.03;36.74
8894;BME280;4483;48.622;9.230;2023-02-15T13:41:18;98825.88;;;19.19;36.72
8894;BME280;4483;48.622;9.230;2023-02-15T13:43:52;98825.34;;;19.42;36.33
8894;BME280;4483;48.622;9.230;2023-02-15T13:46:34;98825.44;;;19.54;36.38
8894;BME280;4483;48.622;9.230;2023-02-15T13:49:12;98826.19;;;19.56;35.76
8894;BME280;4483;48.622;9.230;2023-02-15T13:51:51;98823.28;;;19.47;35.19
8894;BME280;4483;48.622;9.230;2023-02-15T13:57:54;98816.59;;;19.43;35.23